Terminal Aerodrome Forecast
Issued by NWS

Home | Current Version | Previous Version | Text Only | Print | Product List | Glossary On
Versions: 1 2 3 4 5 6 7 8 9 10 11 12 13 14 15 16 17 18 19 20 21 22 23 24 25 26 27 28 29
948
FTUS43 KIND 182320
TAFBMG
TAF
KBMG 182320Z 1900/1924 VRB03KT P6SM OVC010
     FM190600 VRB03KT 1 1/2SM BR BKN015
     FM191000 VRB03KT 1/2SM FG BKN008
     FM191400 12005KT 3/4SM BR OVC010
     FM191500 12006KT P6SM OVC025
     FM191700 12007KT P6SM OVC035
     FM192000 11008KT 3SM -RA OVC015
     FM192200 11008KT 1 1/2SM -RA BR OVC008
      AMD LTD TO CLD VIS AND WIND 1902/1914=

USA.gov is the U.S. government's official web portal to all federal, state and local government web resources and services.